• Join FlightAware (Why Join?)
  • Login
  • US Flag 
04:48AM EDT


 

Airport Tracker/Info


-or-


 

Live Flight TrackerFlight Track Log ✈ CNS794 ✈ 30-Sep-2013 ✈ KPSM - KCON

Flight Track Log - Related Links

Times and Time Zones

All times are in EDT time to prevent confusion due to time zone crossing. See the CNS794 flight status page for this flight to view local times or setup timezone preferences in your user account.

Time Position Orientation Groundspeed Altitude Reporting Facility
EDT Latitude Longitude Course Direction KTS MPH feet Rate Location/Type
11:51AM 43.1167 -70.8667 270° West 164 189 2,200  Level KA90
11:52AM 43.1167 -70.9000 270° West 149 171 3,400 1,260 Climbing KA90
11:53AM 43.1333 -70.9833 285° West 176 203 4,500 480 Climbing KA90
11:54AM 43.1667 -71.0000 340° North 196 226 4,500  Level KA90
11:55AM 43.2167 -70.9833 14° North 184 212 4,500  Level KA90
11:56AM 43.2333 -70.9167 71° East 188 216 4,500  Level KA90
11:57AM 43.2667 -70.9333 340° North 189 217 4,500  Level KA90
11:58AM 43.2667 -71.0000 270° West 197 227 4,500  Level KA90
11:59AM 43.2167 -71.0333 206° Southwest 200 230 4,500  Level KA90
12:00PM 43.1500 -71.0333 180° South 199 229 4,500  Level KA90
12:01PM 43.1000 -71.0333 180° South 198 228 4,500  Level KA90
12:02PM 43.0667 -71.0000 144° Southeast 197 227 4,500  Level KA90
12:03PM 43.1000 -71.0333 324° Northwest 195 224 4,500  Level KA90
12:04PM 43.1333 -71.0500 340° North 190 219 4,500  Level KA90
12:05PM 43.1000 -71.0000 132° Southeast 190 219 4,500  Level KA90
12:06PM 43.1000 -71.0667 270° West 205 236 4,500  Level KA90
12:07PM 43.0667 -71.0833 200° South 195 224 4,500  Level KA90
12:08PM 43.0667 -71.0167 90° East 185 213 4,500  Level KA90
12:09PM 43.1000 -70.9667 48° Northeast 198 228 4,500  Level KA90
12:10PM 43.1167 -71.0167 295° West 200 230 4,500  Level KA90
12:11PM 43.1000 -71.1000 255° West 197 227 4,500  Level KA90
12:12PM 43.0500 -71.0833 166° South 199 229 4,500 -300 Level KA90
12:13PM 43.0000 -71.0667 166° South 201 231 4,000 -660 Descending KA90
12:14PM 42.9500 -71.0667 180° South 211 243 3,200 -540 Descending KA90
12:15PM 42.9667 -71.1333 289° West 183 211 3,000 -120 Descending KA90
12:16PM 42.9833 -71.1833 295° West 168 193 3,000  Level KA90
12:17PM 43.0167 -71.2333 312° West 168 193 3,000  Level KA90
12:18PM 43.0333 -71.3000 289° West 172 198 3,000 -60 Level KA90
12:19PM 43.0667 -71.3500 312° West 169 194 2,900 -300 Descending KA90
12:20PM 43.0833 -71.4000 295° West 169 194 2,500 -180 Descending KA90
12:22PM 43.0833 -71.4000 360° North 169 194 2,500 120 Level KA90
12:24PM 43.1554 -71.4617 328° Northwest  Level Estimated
12:26PM 43.2667 -71.4500 328° Northwest 195 224 3,400  Level KA90
12:27PM 43.3000 -71.3667 61° Northeast 193 222 3,400  Level KA90
12:28PM 43.3000 -71.3000 90° East 205 236 3,400  Level KA90
12:29PM 43.3000 -71.2167 90° East 226 260 3,400  Level KA90
12:30PM 43.2500 -71.1667 144° Southeast 210 242 3,500  Climbing KA90
12:31PM 43.2167 -71.1167 132° Southeast 199 229 3,500  Level KA90
12:32PM 43.1833 -71.0667 132° Southeast 210 242 3,500  Level KA90
12:33PM 43.1167 -71.0167 151° Southeast 210 242 3,500  Level KA90
12:34PM 43.0833 -70.9833 144° Southeast 206 237 3,500  Level KA90
12:35PM 43.0333 -70.9500 154° Southeast 203 234 3,500  Level KA90
12:36PM 43.0667 -70.9333 20° North 196 226 3,500  Level KA90
12:37PM 43.0833 -70.9833 295° West 207 238 3,500 -60 Level KA90
12:38PM 43.0667 -71.0500 251° West 209 241 3,400 -120 Descending KA90
12:39PM 43.0500 -71.1333 255° West 213 245 3,300 -240 Descending KA90
12:40PM 43.0500 -71.2167 270° West 207 238 3,000 -180 Descending KA90
12:41PM 43.0000 -71.2167 180° South 212 244 3,000  Level KA90
12:42PM 43.0500 -71.1667 36° Northeast 200 230 3,000  Level KA90
12:43PM 43.0667 -71.1000 71° East 177 204 3,000  Level KA90
12:44PM 43.0333 -71.0833 160° South 230 265 3,000  Level KA90
12:45PM 43.0167 -71.1500 251° West 197 227 3,000  Level KA90
12:46PM 43.0333 -71.2000 295° West 201 231 3,000  Level KA90
12:47PM 43.0500 -71.1333 71° East 196 226 3,000  Level KA90
12:48PM 43.0500 -71.0500 90° East 214 246 3,000  Level KA90
12:49PM 43.0167 -70.9833 124° Southeast 202 232 3,000  Level KA90
12:50PM 43.0000 -70.9167 109° East 199 229 3,000  Level KA90
12:51PM 42.9833 -70.8667 114° Southeast 168 193 3,000  Level KA90
12:52PM 42.9333 -70.8333 154° Southeast 186 214 3,000  Level KA90
12:53PM 42.9000 -70.7833 132° Southeast 163 188 3,000  Level KA90
12:54PM 42.8833 -70.7500 124° Southeast 164 189 3,000  Level KA90
12:55PM 42.9167 -70.7000 48° Northeast 158 182 3,000  Level KA90
12:56PM 42.9500 -70.7167 340° North 153 176 3,000 -600 Level KA90
12:57PM 42.9833 -70.7500 324° Northwest 158 182 1,900 -900 Descending KA90
12:58PM 43.0167 -70.7667 340° North 139 160 1,200 -420 Descending KA90
12:59PM 43.0333 -70.7833 324° Northwest 123 142 1,100 420 Descending KA90
01:01PM 43.1000 -70.8333 331° Northwest 116 133 2,500 840 Climbing KA90
01:02PM 43.1500 -70.8833 324° Northwest 183 211 3,500 300 Climbing KA90
01:03PM 43.1667 -70.9333 295° West 209 241 3,100 -300 Descending KA90
01:04PM 43.1667 -71.0167 270° West 187 215 3,000 -60 Descending KA90
01:05PM 43.2167 -71.0500 334° Northwest 180 207 3,000  Level KA90
01:06PM 43.2500 -71.0333 20° North 142 163 3,000  Level KA90
01:07PM 43.2500 -70.9833 90° East 166 191 3,000  Level KA90
01:08PM 43.2167 -70.9167 124° Southeast 168 193 3,000 -240 Level KA90
01:09PM 43.1833 -70.9000 160° South 163 188 2,600 -900 Descending KA90
01:10PM 43.1333 -70.8667 154° Southeast 156 180 1,300 -1,200 Descending KA90